Airfield :
LOGIN :

Register | Disclaimer

   EN    FR    IT 

 










Legend :    VFR   Marginal VFR   IFR   Intensive IFR   Very Intensive IFR
Visi :
Ceiling :
>= 8 km
>= 3000ft
5 to 8 km
1000 to 3000 ft
1500m to 5 km
500 to 1000 ft
800 to 1500m
200 to 500 ft
< 800m
< 200 ft
Symbols :   Thunderstorms  Fog  Heavy snow  Heavy precipitations  Wind > 20 kt
SIGMETs :     Misc.  Thunderstorms  Icing  Turbulence  Mountain Waves  Volcanic Ashes






- Airport Elevation : 1674 ft
- IATA code : BRN


LSZB - Bern Belp

CURRENT METAR :
  • 250920Z VRB02KT CAVOK 23/16 Q1012

EXPIRED METARs :
  • 250850Z VRB03KT CAVOK 23/15 Q1013
  • 250820Z VRB02KT CAVOK 22/16 Q1013
  • 250750Z VRB02KT CAVOK 21/15 Q1013
  • 250720Z VRB02KT CAVOK 21/15 Q1013
  • 250650Z 00000KT CAVOK 19/15 Q1013
  • 250620Z AUTO 16003KT CAVOK 18/15 Q1013
  • 250550Z 00000KT CAVOK 17/14 Q1013
  • 250520Z AUTO VRB01KT CAVOK 15/14 Q1013
  • 250450Z VRB01KT CAVOK 14/13 Q1013

TAF TAF LSZB
Valid from the 25 at 09:00 until the 25 at 18:00 UTC


250825Z 2509/2518 VRB02KT CAVOK
BECMG 2509/2511 9999 FEW050
TEMPO 2512/2514 FEW050TCU
TEMPO 2514/2518 SHRA FEW050TCU
PROB30
TEMPO 2514/2518 16012KT TSRA FEW050CB
ATIS : +41 22 417 40 76



MET'MAP, your aeronautical weather chart ! - Copyright ORBIFLY December 2007 - Disclaimer

ORBIFLY MET'MAP TEAM :

Programming & Development : Alexandra Zaïnal
Original concept : Baudouin d'Aumeries
Technical & hardware support : Manuel Goepfert
Assistance : Marc-Olivier Méhu




SOURCES & CREDITS :

   NOAA